createdAt,value
2022-11-06T05:00:28.572Z,12.50
2022-11-06T05:11:33.426Z,5.80
2022-11-06T05:22:33.300Z,7.10
2022-11-06T05:33:33.160Z,5.20
2022-11-06T05:44:33.040Z,4.70
2022-11-06T05:55:32.913Z,4.20
2022-11-06T06:06:32.809Z,5.30
2022-11-06T06:17:32.680Z,4.80
2022-11-06T06:28:32.543Z,6.10
2022-11-06T06:39:32.415Z,6.90
2022-11-06T06:50:32.289Z,9.50
2022-11-06T07:01:32.302Z,7.70
2022-11-06T07:12:32.038Z,7.20
2022-11-06T07:23:32.959Z,6.50
2022-11-06T07:34:31.802Z,6.10
2022-11-06T07:45:31.664Z,5.70
2022-11-06T07:56:31.544Z,5.20
2022-11-06T08:07:31.495Z,7.20
2022-11-06T08:18:31.306Z,6.80
2022-11-06T08:29:31.181Z,7.80
2022-11-06T08:40:31.558Z,7.80
2022-11-06T08:51:31.146Z,8.50
2022-11-06T09:02:30.841Z,8.00
2022-11-06T09:13:30.669Z,5.50
2022-11-06T09:24:50.041Z,6.50
2022-11-06T09:35:30.432Z,5.90
2022-11-06T09:46:30.312Z,5.10
2022-11-06T09:57:30.170Z,4.60
2022-11-06T10:08:30.056Z,5.10
2022-11-06T10:19:29.922Z,4.40
2022-11-06T10:30:30.082Z,4.50
2022-11-06T10:41:29.827Z,4.30
2022-11-06T10:52:29.570Z,5.70
2022-11-06T11:03:29.430Z,4.90
2022-11-06T11:14:29.294Z,5.00
2022-11-06T11:25:29.187Z,5.30
2022-11-06T11:36:29.054Z,3.40
2022-11-06T11:47:28.932Z,4.30
2022-11-06T11:58:28.804Z,4.30
2022-11-06T12:09:28.689Z,4.80
2022-11-06T12:20:28.549Z,3.30
2022-11-06T12:31:28.423Z,4.20
2022-11-06T12:42:28.314Z,3.30
2022-11-06T12:53:28.189Z,4.00
2022-11-06T13:04:28.050Z,3.50
2022-11-06T13:15:27.925Z,3.80
2022-11-06T13:26:27.803Z,3.20
2022-11-06T13:37:27.678Z,3.60
2022-11-06T13:48:27.547Z,3.50
2022-11-06T13:59:32.799Z,4.90
2022-11-06T14:10:27.298Z,5.30
2022-11-06T14:21:27.173Z,5.70
2022-11-06T14:32:28.136Z,4.40
2022-11-06T14:43:27.925Z,3.50
2022-11-06T14:54:26.803Z,4.60
2022-11-06T15:05:26.685Z,4.60
2022-11-06T15:16:26.561Z,4.90
2022-11-06T15:27:26.436Z,6.30
2022-11-06T15:38:26.344Z,4.40
2022-11-06T15:49:26.201Z,4.20
2022-11-06T16:00:26.119Z,3.90
2022-11-06T16:11:25.939Z,5.10
2022-11-06T16:22:25.805Z,3.80
2022-11-06T16:33:25.748Z,4.30
2022-11-06T16:44:30.928Z,6.30
2022-11-06T16:55:25.498Z,4.00
2022-11-06T17:06:25.319Z,5.00
2022-11-06T17:17:25.190Z,4.20
2022-11-06T17:28:25.088Z,5.10
2022-11-06T17:39:24.966Z,8.90
2022-11-06T17:50:24.816Z,5.50
2022-11-06T18:01:24.931Z,4.50
2022-11-06T18:12:24.741Z,5.90
2022-11-06T18:23:24.637Z,4.60
2022-11-06T18:34:24.333Z,5.10
2022-11-06T18:45:24.380Z,3.90
2022-11-06T18:56:24.048Z,4.40
2022-11-06T19:07:23.933Z,3.80
2022-11-06T19:18:23.917Z,3.80
2022-11-06T19:29:23.678Z,4.40
2022-11-06T19:40:23.550Z,4.30
2022-11-06T19:51:24.423Z,4.60
2022-11-06T20:02:23.430Z,3.70
2022-11-06T20:13:23.194Z,5.30
2022-11-06T20:24:23.055Z,3.40
2022-11-06T20:35:22.926Z,4.10
2022-11-06T20:46:22.804Z,3.60
2022-11-06T20:57:22.681Z,4.70
2022-11-06T21:08:22.546Z,5.30
2022-11-06T21:19:22.454Z,3.80
2022-11-06T21:30:22.304Z,4.10
2022-11-06T21:41:22.183Z,4.20
2022-11-06T21:52:28.052Z,3.80
